Time;durP1;ratioP1;P1;durP2;ratioP2;P2;SDS_P1;SDS_P2;PMS_P1;PMS_P2;Temp;Humidity;BMP_temperature;BMP_pressure;BME280_temperature;BME280_humidity;BME280_pressure;Samples;Min_cycle;Max_cycle;Signal;HPM_P1;HPM_P2
2022/08/07 00:02:12;;;;;;;1.00;0.70;;;;;;;17.67;77.85;99871.88;5174798;27;20197;-79
2022/08/07 00:05:00;;;;;;;1.57;0.63;;;;;;;17.26;78.96;99872.53;5175337;27;20671;-78
2022/08/07 00:07:35;;;;;;;2.60;0.80;;;;;;;17.38;79.87;99857.31;5174407;27;20356;-78
2022/08/07 00:10:09;;;;;;;1.57;0.80;;;;;;;17.53;78.86;99866.75;5172577;27;20229;-78
2022/08/07 00:13:01;;;;;;;0.73;0.60;;;;;;;17.54;79.46;99871.16;5175277;27;20193;-78
2022/08/07 00:15:51;;;;;;;3.13;0.80;;;;;;;17.25;81.09;99860.09;5131585;28;20206;-78
2022/08/07 00:18:21;;;;;;;1.73;1.00;;;;;;;17.25;80.62;99859.25;5131272;28;20727;-78
2022/08/07 00:20:53;;;;;;;3.47;1.83;;;;;;;17.44;80.82;99854.97;5128973;28;20232;-78
2022/08/07 00:23:25;;;;;;;2.43;1.00;;;;;;;17.30;80.89;99857.94;5127873;28;20198;-78
2022/08/07 00:25:57;;;;;;;0.50;0.50;;;;;;;17.48;80.22;99849.38;5131372;28;20194;-78
2022/08/07 00:28:42;;;;;;;2.53;1.27;;;;;;;17.26;81.51;99856.44;5130308;28;20198;-78
2022/08/07 00:31:24;;;;;;;3.97;2.13;;;;;;;17.28;82.29;99846.50;5131266;27;20206;-78
2022/08/07 00:34:08;;;;;;;0.60;0.60;;;;;;;17.28;82.72;99854.53;5160310;27;20257;-78
2022/08/07 00:36:36;;;;;;;0.77;0.67;;;;;;;17.09;82.85;99859.66;5121053;27;20220;-78
2022/08/07 00:39:12;;;;;;;1.30;0.70;;;;;;;17.11;83.60;99858.56;5175175;27;20185;-78
2022/08/07 00:41:49;;;;;;;1.60;1.20;;;;;;;17.28;82.64;99859.88;5169489;27;20279;-78
2022/08/07 00:44:29;;;;;;;2.57;0.90;;;;;;;17.42;81.79;99854.25;5176553;27;20189;-78
2022/08/07 00:47:01;;;;;;;2.87;0.80;;;;;;;17.27;82.32;99863.50;5176088;27;20242;-78
2022/08/07 00:49:29;;;;;;;1.00;0.60;;;;;;;17.24;82.43;99853.06;5174360;27;20197;-78
2022/08/07 00:52:18;;;;;;;0.93;0.70;;;;;;;17.30;82.01;99843.69;5178577;27;20197;-78
2022/08/07 00:54:49;;;;;;;0.50;0.50;;;;;;;17.37;81.77;99851.09;5174223;27;20199;-78
2022/08/07 00:57:22;;;;;;;1.73;0.70;;;;;;;17.20;82.43;99843.59;5168865;27;20695;-78
2022/08/07 00:59:53;;;;;;;1.33;0.60;;;;;;;17.21;82.77;99841.75;5167140;27;20193;-78
2022/08/07 01:02:22;;;;;;;2.00;0.60;;;;;;;17.18;83.44;99845.53;5177661;27;20193;-78
2022/08/07 01:04:56;;;;;;;1.63;0.67;;;;;;;17.11;84.11;99839.81;5172337;27;20220;-78
2022/08/07 01:07:28;;;;;;;4.40;0.77;;;;;;;17.02;85.17;99843.22;5167998;27;20609;-78
2022/08/07 01:10:00;;;;;;;1.77;0.70;;;;;;;16.82;86.52;99844.81;5175068;27;20196;-78
2022/08/07 01:12:38;;;;;;;1.57;0.80;;;;;;;16.61;89.45;99838.44;5169935;27;20197;-78
2022/08/07 01:15:22;;;;;;;1.97;0.70;;;;;;;16.47;90.19;99835.97;5177491;27;20200;-78
2022/08/07 01:18:10;;;;;;;2.70;0.70;;;;;;;16.59;90.81;99838.53;5177359;27;20249;-78
2022/08/07 01:20:50;;;;;;;0.80;0.60;;;;;;;16.58;90.38;99839.50;5175564;27;20213;-78
2022/08/07 01:23:29;;;;;;;1.37;0.67;;;;;;;16.46;91.16;99832.44;5173301;27;20197;-78
2022/08/07 01:26:08;;;;;;;1.77;0.70;;;;;;;16.38;92.28;99824.16;5169190;27;20200;-78
2022/08/07 01:28:40;;;;;;;1.30;0.90;;;;;;;16.36;93.52;99828.78;5172699;27;20189;-78
2022/08/07 01:31:13;;;;;;;2.33;0.87;;;;;;;16.10;95.56;99829.91;5169452;27;20200;-78
2022/08/07 01:33:44;;;;;;;2.60;0.97;;;;;;;16.18;95.69;99836.38;5177227;27;20233;-78
2022/08/07 01:36:24;;;;;;;2.30;0.70;;;;;;;15.97;97.04;99830.84;5176196;27;20635;-78
2022/08/07 01:39:04;;;;;;;0.50;0.50;;;;;;;15.93;97.88;99828.53;5171990;27;20231;-78
2022/08/07 01:41:42;;;;;;;2.70;0.80;;;;;;;15.89;98.53;99830.56;5172086;27;20203;-78
2022/08/07 01:44:31;;;;;;;1.90;0.73;;;;;;;15.83;99.07;99830.19;5066004;28;20631;-78
2022/08/07 01:47:04;;;;;;;1.27;0.70;;;;;;;15.91;99.51;99831.31;5073741;28;20659;-78
2022/08/07 01:49:53;;;;;;;0.70;0.60;;;;;;;15.79;100.00;99834.06;5092347;28;20199;-78
2022/08/07 01:52:24;;;;;;;1.13;0.60;;;;;;;15.71;100.00;99827.47;5089907;28;20199;-79
2022/08/07 01:54:56;;;;;;;1.27;0.70;;;;;;;15.79;100.00;99826.88;5087603;28;20279;-78
2022/08/07 01:57:28;;;;;;;0.90;0.70;;;;;;;15.75;100.00;99825.44;5086415;28;20314;-79
2022/08/07 02:00:03;;;;;;;0.93;0.50;;;;;;;15.72;100.00;99831.81;5083881;28;20286;-78
2022/08/07 02:02:45;;;;;;;1.50;0.70;;;;;;;15.60;100.00;99826.53;5137843;27;20283;-78
2022/08/07 02:05:39;;;;;;;1.90;0.80;;;;;;;15.67;100.00;99822.47;5177371;27;20189;-78
2022/08/07 02:08:27;;;;;;;2.27;0.70;;;;;;;15.66;100.00;99826.97;5175801;27;20197;-78
2022/08/07 02:11:01;;;;;;;2.10;0.83;;;;;;;15.85;100.00;99823.78;5166424;27;20197;-78
2022/08/07 02:13:32;;;;;;;1.37;0.93;;;;;;;15.70;100.00;99832.91;5173551;27;20285;-78
2022/08/07 02:16:24;;;;;;;1.53;0.70;;;;;;;15.62;100.00;99829.97;5176289;27;20196;-78
2022/08/07 02:19:01;;;;;;;1.00;0.70;;;;;;;15.66;100.00;99824.28;5176844;27;20227;-78
2022/08/07 02:21:51;;;;;;;0.67;0.67;;;;;;;15.62;100.00;99827.28;5176160;27;20221;-78
2022/08/07 02:24:24;;;;;;;0.73;0.70;;;;;;;15.55;100.00;99824.22;5174987;27;20204;-78
2022/08/07 02:27:00;;;;;;;1.33;0.90;;;;;;;15.53;100.00;99826.13;5154930;27;20189;-78
2022/08/07 02:29:31;;;;;;;2.37;0.80;;;;;;;15.41;100.00;99830.53;5176329;27;20199;-78
2022/08/07 02:32:05;;;;;;;3.40;0.73;;;;;;;15.53;100.00;99825.25;5171984;27;20201;-78
2022/08/07 02:34:40;;;;;;;1.13;0.83;;;;;;;15.48;100.00;99820.28;5171244;27;20234;-78
2022/08/07 02:37:19;;;;;;;2.20;0.90;;;;;;;15.41;100.00;99832.38;5172494;27;20200;-78
2022/08/07 02:39:52;;;;;;;2.40;0.80;;;;;;;15.25;100.00;99827.31;5172357;27;20192;-78
2022/08/07 02:42:43;;;;;;;0.77;0.73;;;;;;;15.17;100.00;99822.50;5175779;27;20197;-78
2022/08/07 02:45:15;;;;;;;0.80;0.60;;;;;;;15.14;100.00;99812.03;5171309;27;20262;-78
2022/08/07 02:48:04;;;;;;;3.33;0.80;;;;;;;14.85;100.00;99814.13;5175939;27;20197;-78
2022/08/07 02:50:45;;;;;;;4.10;0.80;;;;;;;15.05;100.00;99815.38;5142208;27;20188;-77
2022/08/07 02:53:23;;;;;;;0.97;0.80;;;;;;;14.95;100.00;99826.81;5171237;27;20196;-78
2022/08/07 02:55:57;;;;;;;1.83;0.90;;;;;;;14.96;100.00;99818.72;5173899;27;20197;-78
2022/08/07 02:58:35;;;;;;;1.00;0.80;;;;;;;15.08;100.00;99825.84;5172830;27;20217;-78
2022/08/07 03:01:09;;;;;;;0.60;0.60;;;;;;;15.01;100.00;99826.38;5173363;27;20249;-78
2022/08/07 03:03:47;;;;;;;1.07;0.63;;;;;;;15.08;100.00;99820.50;5172796;27;20191;-78
2022/08/07 03:06:20;;;;;;;2.63;0.80;;;;;;;15.11;100.00;99814.09;5176042;27;20195;-79
2022/08/07 03:08:54;;;;;;;2.00;0.80;;;;;;;15.10;100.00;99812.38;5172437;27;20199;-78
2022/08/07 03:11:28;;;;;;;0.80;0.70;;;;;;;15.17;100.00;99811.84;5170452;27;20243;-78
2022/08/07 03:14:08;;;;;;;1.47;0.77;;;;;;;15.02;100.00;99812.94;5170043;27;20691;-78
2022/08/07 03:16:37;;;;;;;1.40;0.90;;;;;;;14.86;100.00;99818.53;5168780;27;20204;-78
2022/08/07 03:19:09;;;;;;;0.80;0.63;;;;;;;14.77;100.00;99815.66;5172754;27;20209;-78
2022/08/07 03:21:40;;;;;;;3.43;0.80;;;;;;;14.68;100.00;99817.16;5175326;27;20256;-78
2022/08/07 03:24:19;;;;;;;1.63;0.70;;;;;;;14.76;100.00;99809.44;5170338;27;20196;-78
2022/08/07 03:26:59;;;;;;;0.70;0.70;;;;;;;14.73;100.00;99807.00;5170566;27;20197;-78
2022/08/07 03:29:34;;;;;;;1.70;0.90;;;;;;;14.69;100.00;99807.34;5135530;27;20185;-78
2022/08/07 03:32:08;;;;;;;1.43;0.90;;;;;;;14.85;100.00;99808.78;5170632;27;20189;-78
2022/08/07 03:34:43;;;;;;;2.43;0.80;;;;;;;14.98;100.00;99813.28;5173302;27;20193;-78
2022/08/07 03:37:35;;;;;;;1.20;0.80;;;;;;;14.68;100.00;99814.50;5174125;27;20192;-78
2022/08/07 03:40:20;;;;;;;1.20;0.90;;;;;;;14.81;100.00;99802.00;5175556;27;20193;-78
2022/08/07 03:42:50;;;;;;;1.93;0.90;;;;;;;14.93;100.00;99807.41;5169848;27;20195;-78
2022/08/07 03:45:20;;;;;;;1.63;1.17;;;;;;;14.82;100.00;99805.50;5174673;27;20185;-78
2022/08/07 03:47:58;;;;;;;1.57;1.00;;;;;;;14.68;100.00;99810.97;5173680;27;20185;-78
2022/08/07 03:50:28;;;;;;;1.63;1.00;;;;;;;14.71;100.00;99808.09;5172165;27;20223;-78
2022/08/07 03:52:59;;;;;;;1.07;0.80;;;;;;;14.77;100.00;99803.19;5171006;27;20200;-78
2022/08/07 03:55:29;;;;;;;3.17;0.80;;;;;;;14.61;100.00;99813.22;5171409;27;20196;-78
2022/08/07 03:58:18;;;;;;;0.73;0.70;;;;;;;14.68;100.00;99814.50;5174700;27;20193;-78
2022/08/07 04:01:10;;;;;;;0.70;0.70;;;;;;;14.71;100.00;99808.09;5175514;27;20218;-78
2022/08/07 04:03:41;;;;;;;1.53;0.90;;;;;;;14.51;100.00;99807.66;5174512;27;20181;-78
2022/08/07 04:06:21;;;;;;;1.67;0.90;;;;;;;13.91;100.00;99810.03;5174624;27;20643;-78
2022/08/07 04:09:06;;;;;;;1.40;0.83;;;;;;;14.15;100.00;99810.19;5173594;27;20674;-78
2022/08/07 04:11:44;;;;;;;1.97;0.80;;;;;;;14.38;100.00;99812.13;5178342;27;20568;-78
2022/08/07 04:14:34;;;;;;;0.70;0.70;;;;;;;14.30;100.00;99812.66;5179412;27;20275;-78
2022/08/07 04:17:13;;;;;;;2.13;0.80;;;;;;;14.43;100.00;99815.31;5173185;27;20196;-78
2022/08/07 04:19:50;;;;;;;1.00;0.90;;;;;;;14.49;100.00;99806.94;5171416;27;20216;-78
2022/08/07 04:22:23;;;;;;;1.20;1.10;;;;;;;14.29;100.00;99810.94;5174231;27;20208;-78
2022/08/07 04:24:56;;;;;;;1.10;0.80;;;;;;;14.27;100.00;99812.84;5178888;27;20638;-78
2022/08/07 04:27:25;;;;;;;0.70;0.70;;;;;;;14.29;100.00;99818.09;5167539;27;20257;-78
2022/08/07 04:29:54;;;;;;;2.80;0.90;;;;;;;14.21;100.00;99815.09;5176110;27;20272;-77
2022/08/07 04:32:33;;;;;;;2.67;0.80;;;;;;;14.22;100.00;99819.47;5173332;27;20203;-77
2022/08/07 04:35:04;;;;;;;1.10;0.80;;;;;;;14.13;100.00;99817.44;5175683;27;20192;-77
2022/08/07 04:37:34;;;;;;;0.87;0.60;;;;;;;14.33;100.00;99819.56;5171231;27;20185;-77
2022/08/07 04:40:23;;;;;;;2.30;0.70;;;;;;;14.42;100.00;99824.28;5178925;27;20213;-77
2022/08/07 04:42:57;;;;;;;1.00;0.80;;;;;;;14.33;100.00;99828.41;5176288;27;20199;-77
2022/08/07 04:45:39;;;;;;;1.53;0.80;;;;;;;14.46;100.00;99827.59;5170829;27;20201;-77
2022/08/07 04:48:42;;;;;;;1.50;0.80;;;;;;;14.22;100.00;99830.13;5178519;27;20205;-77
2022/08/07 04:51:28;;;;;;;0.93;0.80;;;;;;;14.44;100.00;99840.16;5173498;27;20197;-77
2022/08/07 04:54:03;;;;;;;1.77;0.73;;;;;;;14.41;100.00;99841.22;5171074;27;20189;-76
2022/08/07 04:56:42;;;;;;;1.80;0.90;;;;;;;14.47;100.00;99847.97;5176517;27;20195;-77
2022/08/07 04:59:37;;;;;;;2.47;0.90;;;;;;;14.57;100.00;99838.38;5178394;27;20213;-79
2022/08/07 05:02:31;;;;;;;1.90;0.90;;;;;;;14.42;100.00;99842.09;5178339;27;20200;-78
2022/08/07 05:05:05;;;;;;;2.60;0.80;;;;;;;14.46;100.00;99841.78;5173340;27;20200;-78
2022/08/07 05:08:00;;;;;;;1.43;0.80;;;;;;;14.29;100.00;99842.94;5177243;27;20204;-78
2022/08/07 05:10:33;;;;;;;1.10;0.90;;;;;;;14.05;100.00;99849.91;5170378;27;20216;-79
2022/08/07 05:13:08;;;;;;;2.13;0.83;;;;;;;14.41;100.00;99838.56;5163178;27;20245;-79
2022/08/07 05:15:58;;;;;;;4.33;0.90;;;;;;;14.27;100.00;99833.31;5178169;27;20204;-79
2022/08/07 05:18:36;;;;;;;1.10;0.77;;;;;;;14.39;100.00;99840.50;5176489;27;20185;-78
2022/08/07 05:21:12;;;;;;;1.70;0.80;;;;;;;14.42;100.00;99836.75;5177211;27;20243;-79
2022/08/07 05:23:47;;;;;;;3.37;1.10;;;;;;;14.67;100.00;99841.25;5168345;27;20215;-78
2022/08/07 05:26:20;;;;;;;1.83;0.80;;;;;;;14.66;100.00;99840.38;5174974;27;20211;-78
2022/08/07 05:28:54;;;;;;;0.93;0.70;;;;;;;14.76;100.00;99844.13;5177877;27;20292;-79
2022/08/07 05:31:28;;;;;;;1.37;0.70;;;;;;;14.76;100.00;99846.78;5177916;27;20218;-76
2022/08/07 05:34:07;;;;;;;1.80;0.87;;;;;;;14.77;100.00;99850.34;5170726;27;20209;-78
2022/08/07 05:36:42;;;;;;;1.03;0.70;;;;;;;14.96;100.00;99849.88;5167865;27;20196;-79
2022/08/07 05:39:11;;;;;;;2.80;0.90;;;;;;;15.05;100.00;99850.06;5173344;27;20192;-79
2022/08/07 05:42:00;;;;;;;1.13;0.60;;;;;;;15.31;100.00;99850.00;5177871;27;20201;-79
2022/08/07 05:44:36;;;;;;;1.17;0.80;;;;;;;15.24;100.00;99857.59;5168508;27;20193;-79
2022/08/07 05:47:20;;;;;;;2.47;0.80;;;;;;;15.45;100.00;99850.72;5172404;27;20663;-79
2022/08/07 05:50:09;;;;;;;3.87;0.80;;;;;;;15.48;100.00;99852.31;5177526;27;20197;-79
2022/08/07 05:52:40;;;;;;;1.80;0.80;;;;;;;15.70;100.00;99860.47;5173293;27;20647;-79
2022/08/07 05:55:09;;;;;;;1.03;0.70;;;;;;;15.80;100.00;99857.97;5177460;27;20200;-79
2022/08/07 05:57:41;;;;;;;1.53;0.73;;;;;;;15.94;100.00;99864.97;5177537;27;20221;-78
2022/08/07 06:00:13;;;;;;;1.67;0.67;;;;;;;15.92;100.00;99862.44;5177290;27;20212;-78
2022/08/07 06:02:47;;;;;;;1.90;0.60;;;;;;;16.03;100.00;99867.81;5170276;27;20292;-78
2022/08/07 06:05:17;;;;;;;0.63;0.60;;;;;;;16.06;100.00;99863.19;5172001;27;20185;-78
2022/08/07 06:07:55;;;;;;;1.37;0.77;;;;;;;16.06;100.00;99865.88;5172562;27;20189;-79
2022/08/07 06:10:44;;;;;;;1.20;0.83;;;;;;;16.01;100.00;99866.19;5177097;27;20200;-79
2022/08/07 06:13:12;;;;;;;1.60;0.70;;;;;;;16.11;100.00;99869.03;5172221;27;20344;-78
2022/08/07 06:15:44;;;;;;;2.70;0.70;;;;;;;16.21;100.00;99864.69;5170242;27;20196;-78
2022/08/07 06:18:17;;;;;;;2.30;0.90;;;;;;;16.42;100.00;99870.25;5173924;27;20241;-78
2022/08/07 06:20:47;;;;;;;0.93;0.80;;;;;;;16.60;100.00;99864.34;5169324;27;20225;-79
2022/08/07 06:23:38;;;;;;;3.37;0.80;;;;;;;16.65;100.00;99872.00;5175529;27;20233;-79
2022/08/07 06:26:27;;;;;;;0.80;0.60;;;;;;;16.69;100.00;99864.59;5176620;27;20193;-79
2022/08/07 06:28:58;;;;;;;1.00;0.70;;;;;;;16.71;100.00;99865.34;5171073;27;20200;-79
2022/08/07 06:31:28;;;;;;;3.17;0.80;;;;;;;16.87;100.00;99871.19;5173667;27;20197;-79
2022/08/07 06:34:16;;;;;;;0.97;0.60;;;;;;;17.11;100.00;99863.06;5176917;27;20234;-79
2022/08/07 06:36:47;;;;;;;1.67;0.80;;;;;;;17.04;98.91;99869.88;5170431;27;20193;-79
2022/08/07 06:39:21;;;;;;;1.27;0.80;;;;;;;17.18;98.07;99864.28;5168396;27;20208;-78
2022/08/07 06:42:16;;;;;;;1.20;0.70;;;;;;;17.26;98.45;99866.31;5176487;27;20193;-79
2022/08/07 06:44:47;;;;;;;0.87;0.60;;;;;;;17.34;97.35;99869.22;5168806;27;20252;-79
2022/08/07 06:47:18;;;;;;;1.13;0.80;;;;;;;17.44;95.82;99859.47;5171079;27;20195;-78
2022/08/07 06:49:48;;;;;;;0.80;0.70;;;;;;;17.63;95.39;99854.31;5170622;27;20279;-78
2022/08/07 06:52:21;;;;;;;4.63;1.00;;;;;;;17.78;94.06;99860.28;5173498;27;20200;-78
2022/08/07 06:55:10;;;;;;;1.27;0.70;;;;;;;17.78;93.77;99854.09;5176363;27;20185;-78
2022/08/07 06:58:01;;;;;;;4.37;0.93;;;;;;;17.80;91.67;99847.59;5176361;27;20193;-76
2022/08/07 07:00:35;;;;;;;2.70;0.80;;;;;;;17.88;90.48;99847.81;5169011;27;20241;-78
2022/08/07 07:03:06;;;;;;;1.90;0.60;;;;;;;18.10;89.60;99846.03;5172850;27;20197;-78
2022/08/07 07:05:40;;;;;;;1.77;0.80;;;;;;;18.23;86.50;99844.84;5169611;27;20222;-78
2022/08/07 07:08:30;;;;;;;4.13;0.90;;;;;;;18.26;86.96;99841.94;5174918;27;20197;-78
2022/08/07 07:11:03;;;;;;;1.27;0.80;;;;;;;18.37;86.41;99851.75;5176077;27;20193;-78
2022/08/07 07:13:55;;;;;;;1.40;0.80;;;;;;;18.59;85.94;99846.22;5176121;27;20759;-79
2022/08/07 07:16:34;;;;;;;1.17;0.70;;;;;;;18.63;85.00;99844.16;5173621;27;20204;-77
2022/08/07 07:19:21;;;;;;;1.77;0.80;;;;;;;18.66;83.83;99843.91;5172172;27;20193;-78
2022/08/07 07:22:10;;;;;;;0.80;0.80;;;;;;;18.84;82.90;99841.47;5175581;27;20229;-78
2022/08/07 07:25:03;;;;;;;2.50;0.80;;;;;;;18.98;82.49;99841.09;5175908;27;20192;-79
2022/08/07 07:27:57;;;;;;;0.63;0.63;;;;;;;19.20;80.43;99842.72;5176068;27;20631;-79
2022/08/07 07:30:35;;;;;;;3.83;1.27;;;;;;;19.27;78.52;99841.19;5171762;27;20216;-79
2022/08/07 07:33:08;;;;;;;1.63;0.60;;;;;;;19.38;75.27;99843.75;5169273;27;20222;-77
2022/08/07 07:35:41;;;;;;;1.17;0.90;;;;;;;19.34;75.13;99828.91;5172785;27;20192;-79
2022/08/07 07:38:31;;;;;;;1.73;0.80;;;;;;;19.51;76.25;99834.63;5174434;27;20197;-79
2022/08/07 07:41:05;;;;;;;2.33;0.67;;;;;;;19.48;75.79;99833.03;5172321;27;20219;-78
2022/08/07 07:43:41;;;;;;;1.80;0.73;;;;;;;19.92;73.23;99831.72;5169614;27;20223;-79
2022/08/07 07:46:32;;;;;;;2.23;1.00;;;;;;;19.99;71.41;99829.31;5175721;27;20189;-79
2022/08/07 07:49:22;;;;;;;3.27;0.70;;;;;;;20.31;68.15;99829.00;5175703;27;20212;-79
2022/08/07 07:52:12;;;;;;;1.13;0.73;;;;;;;20.34;67.35;99826.00;5175427;27;20197;-79
2022/08/07 07:54:45;;;;;;;2.20;0.80;;;;;;;20.49;66.55;99823.75;5169822;27;20223;-78
2022/08/07 07:57:21;;;;;;;1.90;0.70;;;;;;;20.67;63.72;99827.41;5173357;27;20192;-79
2022/08/07 08:00:16;;;;;;;3.73;1.30;;;;;;;20.60;64.46;99828.13;5175374;27;20196;-79
2022/08/07 08:02:59;;;;;;;3.43;1.10;;;;;;;20.85;63.70;99811.31;5173034;27;20197;-78
2022/08/07 08:05:37;;;;;;;0.80;0.70;;;;;;;20.91;62.52;99820.66;5172894;27;20192;-79
2022/08/07 08:08:23;;;;;;;2.27;0.60;;;;;;;21.18;60.68;99809.03;5173637;27;20181;-77
2022/08/07 08:11:06;;;;;;;1.40;0.70;;;;;;;21.25;61.09;99810.16;5170128;27;20208;-78
2022/08/07 08:13:38;;;;;;;1.87;0.80;;;;;;;21.24;61.99;99811.16;5175084;27;20666;-78
2022/08/07 08:16:29;;;;;;;4.43;0.70;;;;;;;21.32;62.55;99806.72;5174223;27;20193;-79
2022/08/07 08:19:00;;;;;;;3.20;0.75;;;;;;;21.13;59.21;99806.78;5170127;27;20189;-79
2022/08/07 08:27:49;;;;;;;1.53;0.70;;;;;;;21.63;59.45;99799.16;5174941;27;20201;-79
2022/08/07 08:30:29;;;;;;;2.50;0.90;;;;;;;21.73;58.57;99795.53;5174810;27;20671;-79
2022/08/07 08:33:05;;;;;;;1.27;0.80;;;;;;;22.08;56.36;99800.91;5172452;27;20244;-79
2022/08/07 08:35:44;;;;;;;1.45;0.70;;;;;;;21.76;57.06;99797.91;5167470;27;20650;-78
2022/08/07 08:38:22;;;;;;;0.55;0.55;;;;;;;22.08;55.95;99798.22;5173597;27;20181;-79
2022/08/07 08:41:03;;;;;;;1.73;0.70;;;;;;;22.15;55.04;99795.75;5172178;27;20224;-78
2022/08/07 08:43:37;;;;;;;0.73;0.52;;;;;;;22.11;53.45;99795.22;5165812;27;20187;-79
2022/08/07 08:46:21;;;;;;;1.75;0.90;;;;;;;22.46;53.34;99796.13;5167941;27;20200;-78
2022/08/07 08:48:59;;;;;;;2.05;0.60;;;;;;;22.69;52.85;99786.50;5169060;27;20200;-79
2022/08/07 08:51:38;;;;;;;1.53;0.80;;;;;;;22.48;52.77;99797.66;5110369;28;20217;-79
2022/08/07 08:54:32;;;;;;;1.83;0.90;;;;;;;22.72;52.56;99788.03;5112365;28;20203;-79
2022/08/07 08:57:08;;;;;;;1.42;0.60;;;;;;;22.77;52.55;99782.97;5107051;28;20209;-79
2022/08/07 08:59:49;;;;;;;1.92;0.80;;;;;;;22.68;51.08;99784.81;5113941;28;20199;-77
2022/08/07 09:02:31;;;;;;;1.00;0.60;;;;;;;23.14;49.57;99785.38;5103562;28;20219;-78
2022/08/07 09:05:22;;;;;;;2.55;0.80;;;;;;;23.07;49.87;99777.09;5105631;28;20625;-79
2022/08/07 09:08:13;;;;;;;2.03;0.90;;;;;;;23.28;50.06;99781.22;5109317;28;20202;-79
2022/08/07 09:11:02;;;;;;;2.30;0.70;;;;;;;23.35;49.04;99776.81;5178579;27;20643;-79
2022/08/07 09:13:37;;;;;;;2.42;0.80;;;;;;;23.31;48.04;99770.06;5173743;27;20226;-79
2022/08/07 09:16:14;;;;;;;1.15;0.68;;;;;;;23.28;48.26;99776.66;5175397;27;20185;-79
2022/08/07 09:19:12;;;;;;;1.63;0.55;;;;;;;23.81;47.61;99778.13;5177519;27;20185;-78
2022/08/07 09:22:15;;;;;;;1.52;0.60;;;;;;;24.19;46.42;99762.22;5178003;27;20225;-79
2022/08/07 09:25:10;;;;;;;2.05;0.60;;;;;;;23.87;47.15;99766.63;5178212;27;20196;-79
2022/08/07 09:27:52;;;;;;;0.73;0.60;;;;;;;24.10;45.10;99764.09;5178117;27;20192;-79
2022/08/07 09:30:37;;;;;;;0.90;0.60;;;;;;;24.33;45.05;99763.44;5178225;27;20189;-78
2022/08/07 09:33:20;;;;;;;1.80;0.70;;;;;;;24.01;44.40;99759.69;5175968;27;20214;-79
2022/08/07 09:36:14;;;;;;;1.30;0.88;;;;;;;24.53;42.82;99754.75;5173572;27;20596;-79
2022/08/07 09:38:51;;;;;;;1.70;0.70;;;;;;;24.72;42.53;99741.84;5173884;27;20207;-79
2022/08/07 09:41:31;;;;;;;1.05;0.60;;;;;;;24.71;41.36;99748.28;5166871;27;20290;-79
2022/08/07 09:44:21;;;;;;;5.97;0.88;;;;;;;24.87;42.68;99739.22;5175792;27;20216;-79
2022/08/07 09:47:35;;;;;;;0.80;0.70;;;;;;;25.10;42.02;99740.19;5154531;27;20216;-79
2022/08/07 09:50:36;;;;;;;1.63;0.70;;;;;;;25.01;41.53;99735.78;5154724;27;20193;-79
2022/08/07 09:53:11;;;;;;;0.75;0.50;;;;;;;24.66;40.92;99739.81;5145817;27;20276;-79
2022/08/07 09:56:04;;;;;;;0.93;0.63;;;;;;;24.60;40.91;99727.78;5151408;27;20198;-79
2022/08/07 09:59:01;;;;;;;1.48;0.60;;;;;;;24.91;40.68;99725.16;5151869;27;20278;-79
2022/08/07 10:02:02;;;;;;;1.25;0.63;;;;;;;25.08;39.23;99723.22;5154106;27;20300;-79
2022/08/07 10:04:59;;;;;;;0.73;0.73;;;;;;;25.02;39.33;99718.53;5156496;27;20272;-79
2022/08/07 10:08:04;;;;;;;2.10;0.68;;;;;;;25.30;39.08;99713.47;5173988;27;20226;-79
2022/08/07 10:10:46;;;;;;;0.65;0.60;;;;;;;25.49;38.40;99710.28;5170761;27;20193;-79
2022/08/07 10:13:49;;;;;;;0.65;0.50;;;;;;;25.55;37.67;99706.81;5177310;27;20684;-77
2022/08/07 10:16:42;;;;;;;0.73;0.60;;;;;;;24.68;38.67;99708.81;5111390;28;20211;-79
2022/08/07 10:19:27;;;;;;;1.52;0.60;;;;;;;25.06;39.12;99709.84;5110014;28;20183;-79
2022/08/07 10:22:20;;;;;;;1.35;0.73;;;;;;;25.30;37.76;99692.59;5108012;28;20222;-79
2022/08/07 10:25:15;;;;;;;0.57;0.47;;;;;;;25.34;37.82;99699.34;5106629;28;20199;-79
2022/08/07 10:28:03;;;;;;;3.65;0.80;;;;;;;25.52;38.34;99695.50;5107464;28;20221;-79
2022/08/07 10:30:50;;;;;;;1.30;0.80;;;;;;;25.74;37.63;99697.38;5112761;28;20187;-78
2022/08/07 10:33:43;;;;;;;1.05;0.73;;;;;;;26.14;36.49;99690.72;5108504;28;20548;-79
2022/08/07 10:36:45;;;;;;;1.50;0.80;;;;;;;26.21;36.64;99678.09;5112807;28;20202;-79
2022/08/07 10:39:36;;;;;;;2.10;0.60;;;;;;;26.70;36.33;99679.41;5070316;28;20215;-79
2022/08/07 10:42:32;;;;;;;2.70;0.73;;;;;;;26.24;35.87;99677.72;5109623;28;20214;-79
2022/08/07 10:45:15;;;;;;;1.77;0.70;;;;;;;26.78;35.99;99677.44;5110206;28;20191;-79
2022/08/07 10:47:58;;;;;;;1.75;0.90;;;;;;;26.51;35.83;99672.69;5107595;28;20195;-79
2022/08/07 10:50:35;;;;;;;0.95;0.68;;;;;;;26.51;34.69;99668.09;5105962;28;20244;-79
2022/08/07 10:53:12;;;;;;;1.67;0.70;;;;;;;26.58;34.67;99668.19;5103258;28;20214;-79
2022/08/07 10:55:53;;;;;;;0.88;0.70;;;;;;;27.38;33.87;99659.09;5081071;28;20203;-79
2022/08/07 10:58:46;;;;;;;4.50;3.70;;;;;;;27.19;33.53;99662.47;5165651;27;20268;-79
2022/08/07 11:01:38;;;;;;;2.45;1.00;;;;;;;27.13;33.68;99660.53;5173629;27;20189;-79
2022/08/07 11:04:45;;;;;;;0.98;0.90;;;;;;;27.33;33.66;99662.41;5090159;28;20202;-79
2022/08/07 11:07:24;;;;;;;1.55;0.80;;;;;;;27.52;34.45;99657.38;5083817;28;20248;-79
2022/08/07 11:10:18;;;;;;;0.77;0.60;;;;;;;27.54;33.48;99647.97;5091857;28;20253;-79
2022/08/07 11:12:52;;;;;;;3.63;0.80;;;;;;;27.76;33.86;99639.78;5088112;28;20202;-77
2022/08/07 11:15:34;;;;;;;3.65;2.80;;;;;;;28.37;32.97;99632.69;5091152;28;20199;-79
2022/08/07 11:18:09;;;;;;;1.92;1.33;;;;;;;28.31;32.79;99630.78;5050097;28;20212;-79
2022/08/07 11:20:50;;;;;;;1.83;0.80;;;;;;;28.76;32.21;99632.03;5042583;28;20236;-79
2022/08/07 11:23:25;;;;;;;1.92;0.80;;;;;;;28.62;32.35;99632.19;5043833;28;20227;-79
2022/08/07 11:26:12;;;;;;;1.67;0.85;;;;;;;28.12;32.58;99639.63;5045285;28;20219;-79
2022/08/07 11:28:46;;;;;;;1.15;0.70;;;;;;;28.50;32.29;99635.47;5071056;28;20202;-79
2022/08/07 11:31:30;;;;;;;1.55;0.60;;;;;;;28.67;32.19;99636.00;5107407;28;20191;-79
2022/08/07 11:34:09;;;;;;;1.75;0.90;;;;;;;28.38;32.07;99623.47;5107852;28;20199;-79
2022/08/07 11:36:53;;;;;;;0.80;0.70;;;;;;;28.36;32.46;99622.81;5062606;28;20188;-79
2022/08/07 11:40:00;;;;;;;1.20;0.80;;;;;;;28.68;32.15;99615.00;5082161;28;20233;-80
2022/08/07 11:42:44;;;;;;;2.17;0.70;;;;;;;28.88;32.33;99615.06;5047938;28;20221;-79
2022/08/07 11:45:26;;;;;;;1.23;0.88;;;;;;;28.67;32.09;99611.44;5056217;27;20193;-79
2022/08/07 11:48:27;;;;;;;2.30;0.70;;;;;;;28.06;32.36;99615.91;5056136;27;20260;-79
2022/08/07 11:51:20;;;;;;;1.27;0.75;;;;;;;28.77;31.56;99600.16;5053998;28;20213;-79
2022/08/07 11:54:44;;;;;;;1.63;0.90;;;;;;;28.85;31.12;99604.56;5048818;28;20246;-79
2022/08/07 11:57:32;;;;;;;1.17;0.90;;;;;;;29.16;29.40;99604.91;5060146;28;20219;-78
2022/08/07 12:00:30;;;;;;;1.88;0.73;;;;;;;29.60;29.34;99600.75;5050189;27;20208;-79
2022/08/07 12:03:17;;;;;;;2.83;1.27;;;;;;;29.39;30.25;99596.31;5061251;28;20245;-79
2022/08/07 12:06:29;;;;;;;2.15;1.17;;;;;;;29.48;30.26;99599.66;5049847;28;20211;-79
2022/08/07 12:09:14;;;;;;;2.20;0.82;;;;;;;29.32;30.18;99599.00;5059915;28;20215;-78
2022/08/07 12:11:48;;;;;;;1.83;1.10;;;;;;;29.29;30.08;99596.72;5056899;28;20196;-79
2022/08/07 12:14:47;;;;;;;1.30;0.95;;;;;;;30.15;29.12;99591.25;5152703;27;20205;-79
2022/08/07 12:17:34;;;;;;;2.78;1.20;;;;;;;29.59;29.74;99588.13;5150359;27;20197;-77
2022/08/07 12:20:09;;;;;;;0.73;0.70;;;;;;;29.93;29.06;99589.78;5152027;27;20276;-79
2022/08/07 12:23:38;;;;;;;1.48;0.90;;;;;;;29.84;29.06;99591.06;5122289;27;20214;-79
2022/08/07 12:26:30;;;;;;;2.83;0.90;;;;;;;28.24;31.02;99583.53;5070412;28;20338;-78
2022/08/07 12:29:16;;;;;;;0.98;0.75;;;;;;;29.67;29.34;99581.63;5072992;28;20196;-79
2022/08/07 12:32:14;;;;;;;1.40;0.85;;;;;;;29.94;29.32;99575.09;5116965;27;20204;-78
2022/08/07 12:34:45;;;;;;;2.15;1.17;;;;;;;30.05;28.95;99577.16;5058492;27;20204;-78
2022/08/07 12:37:21;;;;;;;3.08;1.08;;;;;;;29.70;28.94;99583.94;5057527;28;20201;-77
2022/08/07 12:39:59;;;;;;;2.47;0.80;;;;;;;29.99;28.59;99583.47;5060660;27;20292;-78
2022/08/07 12:42:28;;;;;;;2.65;1.20;;;;;;;30.71;28.19;99565.19;5057552;28;20208;-78